Wednesday, January 17, 2018, 7:10 PM EST
Back to Local

KACY, Atlantic City International

Location: Absecon, NJ, United States Lat: 39.467
Local Time: 7:10 PM EST ( 0:10 GMT) Lon: -74.583
Time Zone: US/Eastern Elev: 75 ft

Show me the last for .
Show Decoded

2018-01-17 18:54 METAR KACY 172354Z 32010KT 10SM BKN120 M03/M09 A3021 RMK AO2 SLP232 60000
                 T10331089 11006 21033 51003 =
2018-01-17 17:54 METAR KACY 172254Z 31012KT 10SM OVC110 M03/M08 A3021 RMK AO2 SLP229 T10281078 =
2018-01-17 16:54 METAR KACY 172154Z 31012KT 9SM BKN110 M02/M06 A3022 RMK AO2 SLP233 T10221056 =
2018-01-17 15:54 METAR KACY 172054Z 31010KT 7SM BKN095 M02/M04 A3020 RMK AO2 SLP229 60000
                 T10171039 58010 =
2018-01-17 14:54 METAR KACY 171954Z 32014KT 8SM FEW013 BKN075 BKN085 M02/M03 A3022 RMK AO2 SNE00
                 SLP232 P0000 T10171033 =
2018-01-17 14:47 METAR KACY 171947Z 31013KT 8SM SCT013 OVC080 M02/M03 A3022 RMK AO2 SNE00 P0000
                 T10171033 =
2018-01-17 13:54 METAR KACY 171854Z 31013KT 5SM -SN BR OVC012 M01/M02 A3023 RMK AO2 SNE1759B51
                 SLP236 P0000 T10111022 =
2018-01-17 13:36 METAR KACY 171836Z 31013KT 6SM BR OVC010 M01/M02 A3022 RMK AO2 SNE1759 P0000
                 T10111022 =
2018-01-17 12:54 METAR KACY 171754Z 30013KT 4SM -SN BR OVC009 M01/M02 A3023 RMK AO2 SNE27B48 CIG
                 007V012 SLP239 P0000 60001 T10061017 10022 21006 58018 =
2018-01-17 12:23 METAR KACY 171723Z 30013KT 3SM -SN BR OVC008 M01/M02 A3024 RMK AO2 CIG 007V012
                 P0000 T10061017 =
2018-01-17 12:03 METAR KACY 171703Z 32012KT 2SM -SN BR BKN008 OVC012 00/M01 A3025 RMK AO2 P0000
                 T00001006 =
2018-01-17 11:54 METAR KACY 171654Z 31013KT 1 1/4SM -SN BR BKN008 OVC013 00/M01 A3026 RMK AO2
                 SLP246 P0001 T00001006 =
2018-01-17 10:52 METAR KACY 171552Z 31014KT 1 1/4SM -SN BR OVC008 01/00 A3028 RMK AO2 CIG 006V012
                 SLP255 P0000 T00060000 =
2018-01-17 10:51 METAR KACY 171551Z 32013KT 1 1/4SM -SN BR OVC008 01/00 A3028 RMK AO2 CIG 006V011
                 P0000 =
2018-01-17 10:16 METAR KACY 171516Z 31012KT 2SM -SN BR OVC008 01/01 A3029 RMK AO2 CIG 005V011
                 P0000 T00110006 =
2018-01-17 09:54 METAR KACY 171454Z 31012KT 1 1/2SM -SN BR OVC008 01/01 A3029 RMK AO2 SLP257
                 P0000 60000 T00110006 53010 =
2018-01-17 09:37 METAR KACY 171437Z 33011KT 1SM -SN BR BKN008 OVC024 01/01 A3028 =
2018-01-17 09:27 METAR KACY 171427Z 32013KT 1 1/2SM -SN BR BKN008 OVC033 01/01 A3028 RMK AO2
                 P0000 T00110006 =
2018-01-17 08:54 METAR KACY 171354Z 33012KT 2 1/2SM -SN BR OVC008 01/01 A3027 RMK AO2 SNB1259
                 SLP252 P0000 T00110006 =
2018-01-17 08:39 METAR KACY 171339Z 32011KT 2SM -SN BR OVC007 01/01 A3028 =
2018-01-17 07:54 METAR KACY 171254Z 32012KT 6SM BR OVC007 02/01 A3027 RMK AO2 UPB32E43 SLP251
                 P0000 T00170011 =
2018-01-17 06:54 METAR KACY 171154Z 32012G20KT 8SM OVC006 02/02 A3026 RMK AO2 RAE03UPB03E11B30E42
                 SLP247 P0000 60013 70013 T00220017 10039 20022 53004 =
2018-01-17 05:54 METAR KACY 171054Z 33008KT 6SM -RA BR OVC005 03/02 A3025 RMK AO2 UPE0956RAB0956
                 SLP244 P0004 T00280022 =
2018-01-17 05:30 METAR KACY 171030Z 32008KT 4SM RA BR OVC004 03/03 A3025 RMK AO2 UPE0956RAB0956
                 P0002 T00280028 =
2018-01-17 05:08 METAR KACY 171008Z 32006KT 6SM -RA BR BKN005 OVC010 03/03 A3024 RMK AO2
                 UPE0956RAB0956 P0001 T00280028 =
2018-01-17 04:54 METAR KACY 170954Z 34006KT 6SM UP BR SCT005 OVC010 03/03 A3024 RMK AO2
                 RAE13B38E51UPB13 SLP240 P0003 T00280028 =
2018-01-17 03:54 METAR KACY 170854Z 30007KT 3SM RA BR OVC003 03/03 A3025 RMK AO2 SLP243 P0004
                 60006 T00280028 55004 =
2018-01-17 03:40 METAR KACY 170840Z 30008KT 3SM -RA BR BKN003 OVC014 03/03 A3025 RMK AO2 P0003
                 T00280028 =
2018-01-17 03:34 METAR KACY 170834Z 30007KT 2SM RA BR SCT003 BKN010 OVC023 03/03 A3025 RMK AO2
                 P0002 T00330033 =
2018-01-17 03:08 METAR KACY 170808Z 00000KT 2 1/2SM -RA BR OVC005 04/03 A3024 RMK AO2 P0001
                 T00390033 =
2018-01-17 02:54 METAR KACY 170754Z 00000KT 2SM -RA BR OVC004 04/03 A3024 RMK AO2 RAE0658B41
                 SLP240 P0001 T00390033 =
2018-01-17 02:49 METAR KACY 170749Z 00000KT 2SM -RA BR OVC004 03/03 A3024 RMK AO2 RAE0658B41
                 P0000 =
2018-01-17 02:01 METAR KACY 170701Z 00000KT 3SM BR OVC003 03/03 A3026 RMK AO2 RAE0658 P0000
                 T00330033 =
2018-01-17 01:54 METAR KACY 170654Z 00000KT 2 1/2SM -RA BR OVC003 03/03 A3026 RMK AO2 RAB47
                 SLP247 P0001 T00330033 =
2018-01-17 00:54 METAR KACY 170554Z 34003KT 7SM OVC004 03/02 A3027 RMK AO2 SLP252 T00330022 10039
                 20006 58020 =
2018-01-17 00:16 METAR KACY 170516Z 00000KT 10SM OVC004 04/02 A3029 RMK AO2 T00390022 =
2018-01-16 23:54 METAR KACY 170454Z 00000KT 10SM OVC005 03/02 A3029 RMK AO2 SLP259 T00330022
                 400721044 =
2018-01-16 23:34 METAR KACY 170434Z 00000KT 10SM BKN006 OVC029 03/02 A3030 RMK AO2 T00280017 =
2018-01-16 23:09 METAR KACY 170409Z 00000KT 10SM SCT006 OVC032 03/02 A3031 RMK AO2 T00280022 =
2018-01-16 22:54 METAR KACY 170354Z 00000KT 10SM FEW027 OVC033 03/02 A3032 RMK AO2 SLP266
                 T00280017 =
2018-01-16 22:42 METAR KACY 170342Z 04003KT 10SM SCT027 OVC035 03/02 A3032 RMK AO2 T00280017 =
2018-01-16 22:21 METAR KACY 170321Z 35003KT 10SM SCT011 BKN028 OVC037 03/02 A3033 RMK AO2
                 T00280017 =
2018-01-16 21:54 METAR KACY 170254Z 00000KT 10SM BKN011 BKN030 02/01 A3033 RMK AO2 SLP272
                 T00220006 56008 =
2018-01-16 20:54 METAR KACY 170154Z 06006KT 10SM BKN030 02/01 A3034 RMK AO2 SLP275 T00170006 =
2018-01-16 19:54 METAR KACY 170054Z 06005KT 10SM BKN031 01/M01 A3036 RMK AO2 SLP281 T00111006 =

Support USWX by starting your Amazon purchase here.